sensor_id;sensor_type;location;lat;lon;timestamp;pressure;altitude;pressure_sealevel;temperature;humidity
47330;BME280;33060;50.178;7.570;2023-02-28T00:01:35;97997.13;;;-1.27;74.06
47330;BME280;33060;50.178;7.570;2023-02-28T00:04:02;98008.38;;;-1.34;74.53
47330;BME280;33060;50.178;7.570;2023-02-28T00:06:29;98003.19;;;-1.33;74.59
47330;BME280;33060;50.178;7.570;2023-02-28T00:08:56;97999.75;;;-1.33;75.00
47330;BME280;33060;50.178;7.570;2023-02-28T00:11:23;97996.34;;;-1.38;74.89
47330;BME280;33060;50.178;7.570;2023-02-28T00:13:50;97996.31;;;-1.34;75.47
47330;BME280;33060;50.178;7.570;2023-02-28T00:16:21;98004.97;;;-1.39;75.36
47330;BME280;33060;50.178;7.570;2023-02-28T00:18:49;97996.41;;;-1.45;75.55
47330;BME280;33060;50.178;7.570;2023-02-28T00:21:17;98000.72;;;-1.48;75.96
47330;BME280;33060;50.178;7.570;2023-02-28T00:23:44;98005.84;;;-1.40;76.34
47330;BME280;33060;50.178;7.570;2023-02-28T00:26:11;97993.81;;;-1.45;76.33
47330;BME280;33060;50.178;7.570;2023-02-28T00:28:40;97997.31;;;-1.52;76.76
47330;BME280;33060;50.178;7.570;2023-02-28T00:31:06;97996.44;;;-1.48;76.36
47330;BME280;33060;50.178;7.570;2023-02-28T00:33:34;97998.19;;;-1.54;77.04
47330;BME280;33060;50.178;7.570;2023-02-28T00:36:07;97993.03;;;-1.59;77.61
47330;BME280;33060;50.178;7.570;2023-02-28T00:38:36;98000.84;;;-1.63;77.33
47330;BME280;33060;50.178;7.570;2023-02-28T00:41:02;97996.53;;;-1.66;77.57
47330;BME280;33060;50.178;7.570;2023-02-28T00:43:36;97996.53;;;-1.67;78.69
47330;BME280;33060;50.178;7.570;2023-02-28T00:46:03;98000.88;;;-1.69;78.63
47330;BME280;33060;50.178;7.570;2023-02-28T00:48:30;98002.59;;;-1.70;78.40
47330;BME280;33060;50.178;7.570;2023-02-28T00:50:57;98007.78;;;-1.70;78.36
47330;BME280;33060;50.178;7.570;2023-02-28T00:53:24;98000.03;;;-1.75;79.42
47330;BME280;33060;50.178;7.570;2023-02-28T00:55:51;98006.13;;;-1.80;79.81
47330;BME280;33060;50.178;7.570;2023-02-28T00:58:17;98008.72;;;-1.82;79.67
47330;BME280;33060;50.178;7.570;2023-02-28T01:00:45;98001.81;;;-1.81;80.71
47330;BME280;33060;50.178;7.570;2023-02-28T01:03:20;98003.53;;;-1.83;81.49
47330;BME280;33060;50.178;7.570;2023-02-28T01:05:47;98004.38;;;-1.83;81.12
47330;BME280;33060;50.178;7.570;2023-02-28T01:08:15;98009.59;;;-1.86;82.20
47330;BME280;33060;50.178;7.570;2023-02-28T01:10:42;98005.25;;;-1.78;82.83
47330;BME280;33060;50.178;7.570;2023-02-28T01:13:09;98006.09;;;-1.79;83.19
47330;BME280;33060;50.178;7.570;2023-02-28T01:15:45;98007.88;;;-1.85;82.97
47330;BME280;33060;50.178;7.570;2023-02-28T01:18:12;98001.03;;;-1.91;83.60
47330;BME280;33060;50.178;7.570;2023-02-28T01:20:39;98007.03;;;-1.87;84.59
47330;BME280;33060;50.178;7.570;2023-02-28T01:23:07;98003.59;;;-1.94;84.39
47330;BME280;33060;50.178;7.570;2023-02-28T01:25:35;98000.19;;;-2.01;85.39
47330;BME280;33060;50.178;7.570;2023-02-28T01:28:04;98007.09;;;-2.00;84.88
47330;BME280;33060;50.178;7.570;2023-02-28T01:30:33;98001.91;;;-2.01;85.19
47330;BME280;33060;50.178;7.570;2023-02-28T01:33:00;98004.53;;;-2.04;85.17
47330;BME280;33060;50.178;7.570;2023-02-28T01:35:26;97999.38;;;-2.07;85.53
47330;BME280;33060;50.178;7.570;2023-02-28T01:37:53;98004.53;;;-2.04;85.35
47330;BME280;33060;50.178;7.570;2023-02-28T01:40:20;98002.81;;;-2.05;85.91
47330;BME280;33060;50.178;7.570;2023-02-28T01:42:47;97995.06;;;-2.10;85.64
47330;BME280;33060;50.178;7.570;2023-02-28T01:45:27;98001.09;;;-2.06;86.06
47330;BME280;33060;50.178;7.570;2023-02-28T01:48:02;97998.53;;;-2.08;86.16
47330;BME280;33060;50.178;7.570;2023-02-28T01:50:34;97994.22;;;-2.07;86.31
47330;BME280;33060;50.178;7.570;2023-02-28T01:53:06;97999.41;;;-2.16;86.85
47330;BME280;33060;50.178;7.570;2023-02-28T01:55:34;97991.66;;;-2.15;86.60
47330;BME280;33060;50.178;7.570;2023-02-28T01:58:04;97995.09;;;-2.16;86.99
47330;BME280;33060;50.178;7.570;2023-02-28T02:00:32;97995.09;;;-2.16;86.81
47330;BME280;33060;50.178;7.570;2023-02-28T02:03:04;97990.81;;;-2.17;86.40
47330;BME280;33060;50.178;7.570;2023-02-28T02:05:37;97991.69;;;-2.24;87.03
47330;BME280;33060;50.178;7.570;2023-02-28T02:08:11;97995.97;;;-2.20;87.39
47330;BME280;33060;50.178;7.570;2023-02-28T02:10:44;97986.50;;;-2.15;86.80
47330;BME280;33060;50.178;7.570;2023-02-28T02:13:42;97991.66;;;-2.18;86.80
47330;BME280;33060;50.178;7.570;2023-02-28T02:16:21;97980.50;;;-2.23;87.35
47330;BME280;33060;50.178;7.570;2023-02-28T02:18:53;97985.66;;;-2.21;87.09
47330;BME280;33060;50.178;7.570;2023-02-28T02:35:52;97972.78;;;-2.37;87.80
47330;BME280;33060;50.178;7.570;2023-02-28T02:38:28;97972.81;;;-2.41;87.05
47330;BME280;33060;50.178;7.570;2023-02-28T02:41:04;97969.38;;;-2.43;87.74
47330;BME280;33060;50.178;7.570;2023-02-28T02:43:48;97974.56;;;-2.46;87.70
47330;BME280;33060;50.178;7.570;2023-02-28T02:48:56;97976.31;;;-2.50;87.26
47330;BME280;33060;50.178;7.570;2023-02-28T02:51:27;97978.88;;;-2.53;87.46
47330;BME280;33060;50.178;7.570;2023-02-28T02:54:02;97980.59;;;-2.52;87.42
47330;BME280;33060;50.178;7.570;2023-02-28T02:56:33;97978.91;;;-2.56;87.19
47330;BME280;33060;50.178;7.570;2023-02-28T02:59:04;97970.28;;;-2.55;87.28
47330;BME280;33060;50.178;7.570;2023-02-28T03:01:34;97972.03;;;-2.59;87.51
47330;BME280;33060;50.178;7.570;2023-02-28T03:04:06;97974.56;;;-2.52;87.62
47330;BME280;33060;50.178;7.570;2023-02-28T03:06:33;97976.31;;;-2.51;87.33
47330;BME280;33060;50.178;7.570;2023-02-28T03:09:02;97977.16;;;-2.56;87.04
47330;BME280;33060;50.178;7.570;2023-02-28T03:11:29;97978.06;;;-2.60;87.35
47330;BME280;33060;50.178;7.570;2023-02-28T03:14:25;97980.63;;;-2.55;87.02
47330;BME280;33060;50.178;7.570;2023-02-28T03:25:36;97970.34;;;-2.69;87.28
47330;BME280;33060;50.178;7.570;2023-02-28T03:30:49;97961.75;;;-2.77;87.14
47330;BME280;33060;50.178;7.570;2023-02-28T03:33:24;97962.63;;;-2.78;87.08
47330;BME280;33060;50.178;7.570;2023-02-28T03:35:55;97963.47;;;-2.74;87.24
47330;BME280;33060;50.178;7.570;2023-02-28T03:38:40;97969.50;;;-2.77;87.11
47330;BME280;33060;50.178;7.570;2023-02-28T03:41:19;97978.94;;;-2.73;87.00
47330;BME280;33060;50.178;7.570;2023-02-28T03:43:53;97972.06;;;-2.74;87.04
47330;BME280;33060;50.178;7.570;2023-02-28T03:46:24;97977.22;;;-2.68;86.72
47330;BME280;33060;50.178;7.570;2023-02-28T03:49:00;97975.50;;;-2.69;86.31
47330;BME280;33060;50.178;7.570;2023-02-28T03:51:29;97980.66;;;-2.73;86.24
47330;BME280;33060;50.178;7.570;2023-02-28T03:53:59;97977.25;;;-2.80;86.36
47330;BME280;33060;50.178;7.570;2023-02-28T03:56:36;97975.53;;;-2.78;86.65
47330;BME280;33060;50.178;7.570;2023-02-28T03:59:09;97979.84;;;-2.85;86.53
47330;BME280;33060;50.178;7.570;2023-02-28T04:01:44;97989.31;;;-2.88;86.55
47330;BME280;33060;50.178;7.570;2023-02-28T04:04:12;97979.00;;;-2.87;86.52
47330;BME280;33060;50.178;7.570;2023-02-28T04:06:39;97985.84;;;-2.87;86.43
47330;BME280;33060;50.178;7.570;2023-02-28T04:09:08;97985.00;;;-2.89;86.57
47330;BME280;33060;50.178;7.570;2023-02-28T04:11:40;97986.72;;;-2.85;86.29
47330;BME280;33060;50.178;7.570;2023-02-28T04:14:08;97976.41;;;-2.88;86.07
47330;BME280;33060;50.178;7.570;2023-02-28T04:16:37;97985.03;;;-2.94;86.80
47330;BME280;33060;50.178;7.570;2023-02-28T04:19:05;97990.16;;;-2.89;86.35
47330;BME280;33060;50.178;7.570;2023-02-28T04:21:38;97988.44;;;-2.90;86.21
47330;BME280;33060;50.178;7.570;2023-02-28T04:24:10;97990.16;;;-2.88;86.12
47330;BME280;33060;50.178;7.570;2023-02-28T04:26:43;97984.16;;;-2.93;85.86
47330;BME280;33060;50.178;7.570;2023-02-28T04:29:11;97985.03;;;-2.95;86.09
47330;BME280;33060;50.178;7.570;2023-02-28T04:31:39;97982.47;;;-2.95;86.38
47330;BME280;33060;50.178;7.570;2023-02-28T04:34:06;97984.16;;;-2.96;86.03
47330;BME280;33060;50.178;7.570;2023-02-28T04:36:32;97984.16;;;-2.99;85.89
47330;BME280;33060;50.178;7.570;2023-02-28T04:38:59;97986.75;;;-2.97;86.42
47330;BME280;33060;50.178;7.570;2023-02-28T04:41:26;97986.75;;;-3.00;85.93
47330;BME280;33060;50.178;7.570;2023-02-28T04:43:57;97981.63;;;-3.13;86.28
47330;BME280;33060;50.178;7.570;2023-02-28T04:46:23;97986.78;;;-3.09;85.80
47330;BME280;33060;50.178;7.570;2023-02-28T04:48:50;97987.63;;;-3.06;85.78
47330;BME280;33060;50.178;7.570;2023-02-28T04:51:18;97991.94;;;-3.03;85.86
47330;BME280;33060;50.178;7.570;2023-02-28T04:53:45;97985.03;;;-3.07;85.57
47330;BME280;33060;50.178;7.570;2023-02-28T04:56:14;97989.38;;;-3.13;85.79
47330;BME280;33060;50.178;7.570;2023-02-28T04:58:41;97990.19;;;-3.07;85.39
47330;BME280;33060;50.178;7.570;2023-02-28T05:01:25;97988.50;;;-3.10;85.31
47330;BME280;33060;50.178;7.570;2023-02-28T05:03:55;97995.34;;;-3.14;85.55
47330;BME280;33060;50.178;7.570;2023-02-28T05:06:24;97990.22;;;-3.12;85.35
47330;BME280;33060;50.178;7.570;2023-02-28T05:08:52;97988.47;;;-3.15;85.03
47330;BME280;33060;50.178;7.570;2023-02-28T05:11:30;97989.31;;;-2.96;83.37
47330;BME280;33060;50.178;7.570;2023-02-28T05:14:03;97994.50;;;-3.09;83.92
47330;BME280;33060;50.178;7.570;2023-02-28T05:16:31;97996.22;;;-3.15;83.72
47330;BME280;33060;50.178;7.570;2023-02-28T05:18:58;97996.22;;;-3.10;83.69
47330;BME280;33060;50.178;7.570;2023-02-28T05:21:35;97988.50;;;-3.11;84.53
47330;BME280;33060;50.178;7.570;2023-02-28T05:24:08;97991.94;;;-3.16;84.33
47330;BME280;33060;50.178;7.570;2023-02-28T05:26:38;97995.38;;;-3.20;84.38
47330;BME280;33060;50.178;7.570;2023-02-28T05:29:05;97995.38;;;-3.23;84.24
47330;BME280;33060;50.178;7.570;2023-02-28T05:31:32;98003.13;;;-3.18;83.88
47330;BME280;33060;50.178;7.570;2023-02-28T05:33:59;97990.22;;;-3.15;84.07
47330;BME280;33060;50.178;7.570;2023-02-28T05:36:25;97993.66;;;-3.16;83.83
47330;BME280;33060;50.178;7.570;2023-02-28T05:38:52;97994.50;;;-3.16;84.09
47330;BME280;33060;50.178;7.570;2023-02-28T05:41:19;98000.53;;;-3.15;83.95
47330;BME280;33060;50.178;7.570;2023-02-28T05:43:47;98002.28;;;-3.20;83.92
47330;BME280;33060;50.178;7.570;2023-02-28T05:46:14;97996.25;;;-3.25;83.85
47330;BME280;33060;50.178;7.570;2023-02-28T05:48:42;97994.53;;;-3.20;83.92
47330;BME280;33060;50.178;7.570;2023-02-28T05:51:09;98003.97;;;-3.24;84.12
47330;BME280;33060;50.178;7.570;2023-02-28T05:53:36;98002.25;;;-3.25;83.97
47330;BME280;33060;50.178;7.570;2023-02-28T05:56:03;98004.00;;;-3.30;84.24
47330;BME280;33060;50.178;7.570;2023-02-28T05:58:30;98000.56;;;-3.29;84.14
47330;BME280;33060;50.178;7.570;2023-02-28T06:00:58;97994.53;;;-3.29;84.04
47330;BME280;33060;50.178;7.570;2023-02-28T06:03:25;97999.66;;;-3.23;83.55
47330;BME280;33060;50.178;7.570;2023-02-28T06:05:52;98005.69;;;-3.23;83.70
47330;BME280;33060;50.178;7.570;2023-02-28T06:08:19;97996.22;;;-3.24;83.40
47330;BME280;33060;50.178;7.570;2023-02-28T06:10:45;98004.84;;;-3.17;83.28
47330;BME280;33060;50.178;7.570;2023-02-28T06:13:12;98002.25;;;-3.22;83.58
47330;BME280;33060;50.178;7.570;2023-02-28T06:15:39;98009.97;;;-3.22;83.50
47330;BME280;33060;50.178;7.570;2023-02-28T06:18:06;98002.25;;;-3.17;82.73
47330;BME280;33060;50.178;7.570;2023-02-28T06:20:32;98013.44;;;-3.18;83.13
47330;BME280;33060;50.178;7.570;2023-02-28T06:22:59;98013.44;;;-3.20;83.30
47330;BME280;33060;50.178;7.570;2023-02-28T06:25:27;98016.88;;;-3.18;82.87
47330;BME280;33060;50.178;7.570;2023-02-28T06:27:54;98017.72;;;-3.22;82.87
47330;BME280;33060;50.178;7.570;2023-02-28T06:30:21;98016.88;;;-3.25;83.25
47330;BME280;33060;50.178;7.570;2023-02-28T06:32:51;98017.72;;;-3.16;82.86
47330;BME280;33060;50.178;7.570;2023-02-28T06:35:18;98015.16;;;-3.17;82.76
47330;BME280;33060;50.178;7.570;2023-02-28T06:37:45;98019.44;;;-3.15;82.67
47330;BME280;33060;50.178;7.570;2023-02-28T06:40:14;98021.16;;;-3.14;82.61
47330;BME280;33060;50.178;7.570;2023-02-28T06:42:41;98017.72;;;-3.09;82.93
47330;BME280;33060;50.178;7.570;2023-02-28T06:45:09;98020.31;;;-3.03;82.32
47330;BME280;33060;50.178;7.570;2023-02-28T06:47:40;98022.88;;;-3.00;81.76
47330;BME280;33060;50.178;7.570;2023-02-28T06:50:09;98019.44;;;-2.93;81.51
47330;BME280;33060;50.178;7.570;2023-02-28T06:52:36;98028.03;;;-2.96;81.81
47330;BME280;33060;50.178;7.570;2023-02-28T06:55:07;98033.19;;;-2.85;81.86
47330;BME280;33060;50.178;7.570;2023-02-28T06:57:35;98045.25;;;-2.78;81.30
47330;BME280;33060;50.178;7.570;2023-02-28T07:00:08;98039.19;;;-2.65;81.36
47330;BME280;33060;50.178;7.570;2023-02-28T07:02:36;98033.13;;;-2.62;81.23
47330;BME280;33060;50.178;7.570;2023-02-28T07:05:05;98036.59;;;-2.57;80.88
47330;BME280;33060;50.178;7.570;2023-02-28T07:07:32;98035.72;;;-2.58;80.14
47330;BME280;33060;50.178;7.570;2023-02-28T07:09:58;98039.13;;;-2.43;80.13
47330;BME280;33060;50.178;7.570;2023-02-28T07:12:25;98022.75;;;-2.39;79.83
47330;BME280;33060;50.178;7.570;2023-02-28T07:14:52;98036.53;;;-2.33;79.42
47330;BME280;33060;50.178;7.570;2023-02-28T07:17:18;98033.91;;;-2.28;78.97
47330;BME280;33060;50.178;7.570;2023-02-28T07:19:45;98041.66;;;-2.22;79.28
47330;BME280;33060;50.178;7.570;2023-02-28T07:22:11;98041.63;;;-2.14;78.66
47330;BME280;33060;50.178;7.570;2023-02-28T07:24:41;98044.16;;;-2.05;78.04
47330;BME280;33060;50.178;7.570;2023-02-28T07:27:07;98042.44;;;-2.05;77.36
47330;BME280;33060;50.178;7.570;2023-02-28T07:29:34;98034.69;;;-2.09;77.40
47330;BME280;33060;50.178;7.570;2023-02-28T07:32:00;98053.69;;;-2.15;77.41
47330;BME280;33060;50.178;7.570;2023-02-28T07:34:27;98047.59;;;-2.03;77.57
47330;BME280;33060;50.178;7.570;2023-02-28T07:36:54;98039.72;;;-1.77;76.77
47330;BME280;33060;50.178;7.570;2023-02-28T07:39:21;98046.47;;;-1.53;76.01
47330;BME280;33060;50.178;7.570;2023-02-28T07:41:48;98041.06;;;-1.23;74.58
47330;BME280;33060;50.178;7.570;2023-02-28T07:44:15;98031.28;;;-0.86;73.37
47330;BME280;33060;50.178;7.570;2023-02-28T07:46:42;98032.91;;;-0.74;72.38
47330;BME280;33060;50.178;7.570;2023-02-28T07:49:08;98022.22;;;-0.43;71.24
47330;BME280;33060;50.178;7.570;2023-02-28T07:51:37;98029.31;;;-0.61;71.23
47330;BME280;33060;50.178;7.570;2023-02-28T07:54:04;98025.81;;;-0.57;71.32
47330;BME280;33060;50.178;7.570;2023-02-28T07:56:31;98036.13;;;-0.50;69.58
47330;BME280;33060;50.178;7.570;2023-02-28T07:58:58;98032.31;;;-0.20;68.65
47330;BME280;33060;50.178;7.570;2023-02-28T08:01:24;98033.06;;;-0.08;67.29
47330;BME280;33060;50.178;7.570;2023-02-28T08:03:51;98036.94;;;0.24;66.90
47330;BME280;33060;50.178;7.570;2023-02-28T08:06:20;98035.94;;;0.36;66.02
47330;BME280;33060;50.178;7.570;2023-02-28T08:08:48;98035.19;;;0.27;64.88
47330;BME280;33060;50.178;7.570;2023-02-28T08:11:16;98024.41;;;0.55;65.33
47330;BME280;33060;50.178;7.570;2023-02-28T08:13:44;98018.00;;;0.77;64.36
47330;BME280;33060;50.178;7.570;2023-02-28T08:16:12;98029.53;;;0.61;64.18
47330;BME280;33060;50.178;7.570;2023-02-28T08:18:41;98027.63;;;0.72;64.28
47330;BME280;33060;50.178;7.570;2023-02-28T08:21:09;98025.78;;;0.77;63.23
47330;BME280;33060;50.178;7.570;2023-02-28T08:23:36;98021.00;;;0.53;62.44
47330;BME280;33060;50.178;7.570;2023-02-28T08:26:03;98024.44;;;0.53;62.49
47330;BME280;33060;50.178;7.570;2023-02-28T08:28:30;98021.81;;;0.55;62.14
47330;BME280;33060;50.178;7.570;2023-02-28T08:30:57;98020.13;;;0.52;61.28
47330;BME280;33060;50.178;7.570;2023-02-28T08:33:24;98020.19;;;0.48;61.21
47330;BME280;33060;50.178;7.570;2023-02-28T08:35:55;98018.25;;;0.61;59.48
47330;BME280;33060;50.178;7.570;2023-02-28T08:38:23;98023.34;;;0.68;60.44
47330;BME280;33060;50.178;7.570;2023-02-28T08:40:53;98012.72;;;0.83;59.34
47330;BME280;33060;50.178;7.570;2023-02-28T08:43:23;98016.88;;;0.94;59.03
47330;BME280;33060;50.178;7.570;2023-02-28T08:45:54;98023.16;;;0.80;58.82
47330;BME280;33060;50.178;7.570;2023-02-28T08:48:24;98021.41;;;0.82;59.27
47330;BME280;33060;50.178;7.570;2023-02-28T08:50:56;98015.16;;;0.93;58.69
47330;BME280;33060;50.178;7.570;2023-02-28T08:53:32;98009.28;;;0.81;57.69
47330;BME280;33060;50.178;7.570;2023-02-28T08:56:02;98019.75;;;0.78;57.51
47330;BME280;33060;50.178;7.570;2023-02-28T08:58:29;98016.78;;;1.00;58.12
47330;BME280;33060;50.178;7.570;2023-02-28T09:00:56;98005.63;;;0.93;57.67
47330;BME280;33060;50.178;7.570;2023-02-28T09:03:24;98021.19;;;0.95;57.61
47330;BME280;33060;50.178;7.570;2023-02-28T09:05:59;98014.84;;;1.11;57.66
47330;BME280;33060;50.178;7.570;2023-02-28T09:08:27;98016.72;;;1.04;57.44
47330;BME280;33060;50.178;7.570;2023-02-28T09:10:54;98017.72;;;0.96;57.42
47330;BME280;33060;50.178;7.570;2023-02-28T09:13:24;98016.53;;;1.15;57.31
47330;BME280;33060;50.178;7.570;2023-02-28T09:15:51;98025.78;;;0.77;57.24
47330;BME280;33060;50.178;7.570;2023-02-28T09:18:18;98013.25;;;1.05;55.92
47330;BME280;33060;50.178;7.570;2023-02-28T09:20:45;98019.06;;;1.18;56.41
47330;BME280;33060;50.178;7.570;2023-02-28T09:23:12;98019.78;;;1.26;56.18
47330;BME280;33060;50.178;7.570;2023-02-28T09:25:47;98017.59;;;1.05;56.36
47330;BME280;33060;50.178;7.570;2023-02-28T09:28:14;98008.00;;;1.55;56.46
47330;BME280;33060;50.178;7.570;2023-02-28T09:30:46;98015.44;;;1.73;55.86
47330;BME280;33060;50.178;7.570;2023-02-28T09:33:14;98009.00;;;1.49;55.35
47330;BME280;33060;50.178;7.570;2023-02-28T09:35:41;98011.50;;;1.54;55.61
47330;BME280;33060;50.178;7.570;2023-02-28T09:38:10;98010.38;;;1.67;55.56
47330;BME280;33060;50.178;7.570;2023-02-28T09:40:40;98002.22;;;1.40;54.50
47330;BME280;33060;50.178;7.570;2023-02-28T09:43:13;98016.84;;;1.45;54.62
47330;BME280;33060;50.178;7.570;2023-02-28T09:45:44;98026.28;;;1.01;55.92
47330;BME280;33060;50.178;7.570;2023-02-28T09:48:23;98013.16;;;0.56;56.60
47330;BME280;33060;50.178;7.570;2023-02-28T09:50:52;98014.47;;;0.83;56.35
47330;BME280;33060;50.178;7.570;2023-02-28T09:53:33;98026.66;;;0.79;56.69
47330;BME280;33060;50.178;7.570;2023-02-28T09:56:50;98022.66;;;0.57;56.72
47330;BME280;33060;50.178;7.570;2023-02-28T09:59:01;98026.94;;;0.60;56.86
47330;BME280;33060;50.178;7.570;2023-02-28T10:04:11;98013.09;;;1.15;53.94
47330;BME280;33060;50.178;7.570;2023-02-28T10:06:49;98013.78;;;1.24;54.72
47330;BME280;33060;50.178;7.570;2023-02-28T10:09:26;98007.41;;;1.39;52.81
47330;BME280;33060;50.178;7.570;2023-02-28T10:11:57;98011.75;;;1.40;52.64
47330;BME280;33060;50.178;7.570;2023-02-28T10:14:28;98013.34;;;1.47;51.16
47330;BME280;33060;50.178;7.570;2023-02-28T10:17:04;98024.94;;;1.31;50.59
47330;BME280;33060;50.178;7.570;2023-02-28T10:19:58;98016.91;;;1.43;50.05
47330;BME280;33060;50.178;7.570;2023-02-28T10:25:19;98015.97;;;1.46;49.71
47330;BME280;33060;50.178;7.570;2023-02-28T10:27:46;98018.75;;;1.83;49.78
47330;BME280;33060;50.178;7.570;2023-02-28T10:30:13;98017.78;;;1.87;50.37
47330;BME280;33060;50.178;7.570;2023-02-28T10:32:47;98017.72;;;1.91;49.53
47330;BME280;33060;50.178;7.570;2023-02-28T10:37:49;98013.22;;;1.98;48.68
47330;BME280;33060;50.178;7.570;2023-02-28T10:43:05;98022.13;;;2.28;48.79
47330;BME280;33060;50.178;7.570;2023-02-28T10:45:34;98020.38;;;2.29;49.03
47330;BME280;33060;50.178;7.570;2023-02-28T10:48:27;98029.09;;;1.86;48.49
47330;BME280;33060;50.178;7.570;2023-02-28T10:50:56;98028.16;;;1.88;48.74
47330;BME280;33060;50.178;7.570;2023-02-28T11:01:39;98013.59;;;1.80;49.17
47330;BME280;33060;50.178;7.570;2023-02-28T11:07:19;98013.19;;;1.99;49.50
47330;BME280;33060;50.178;7.570;2023-02-28T11:09:54;98023.78;;;2.32;48.04
47330;BME280;33060;50.178;7.570;2023-02-28T11:12:38;98006.56;;;2.25;47.48
47330;BME280;33060;50.178;7.570;2023-02-28T11:17:54;98011.50;;;1.97;48.61
47330;BME280;33060;50.178;7.570;2023-02-28T11:20:25;98003.75;;;1.95;48.38
47330;BME280;33060;50.178;7.570;2023-02-28T11:22:53;98008.47;;;2.17;47.99
47330;BME280;33060;50.178;7.570;2023-02-28T11:25:25;98013.66;;;1.77;48.66
47330;BME280;33060;50.178;7.570;2023-02-28T11:28:00;98007.84;;;2.06;48.48
47330;BME280;33060;50.178;7.570;2023-02-28T11:30:40;98012.34;;;2.39;47.34
47330;BME280;33060;50.178;7.570;2023-02-28T11:33:27;98007.16;;;2.38;46.82
47330;BME280;33060;50.178;7.570;2023-02-28T11:36:03;98005.13;;;2.50;46.66
47330;BME280;33060;50.178;7.570;2023-02-28T11:38:33;97998.16;;;2.90;47.47
47330;BME280;33060;50.178;7.570;2023-02-28T11:43:53;97992.88;;;3.59;45.12
47330;BME280;33060;50.178;7.570;2023-02-28T11:46:48;97998.03;;;3.28;45.86
47330;BME280;33060;50.178;7.570;2023-02-28T11:52:01;97995.47;;;2.55;46.59
47330;BME280;33060;50.178;7.570;2023-02-28T11:57:44;97992.53;;;2.32;48.44
47330;BME280;33060;50.178;7.570;2023-02-28T12:00:31;97996.63;;;2.42;46.70
47330;BME280;33060;50.178;7.570;2023-02-28T12:05:45;97986.19;;;2.81;46.07
47330;BME280;33060;50.178;7.570;2023-02-28T12:08:43;97984.31;;;2.86;46.53
47330;BME280;33060;50.178;7.570;2023-02-28T12:19:18;97978.72;;;3.68;44.55
47330;BME280;33060;50.178;7.570;2023-02-28T12:27:27;97984.09;;;2.95;44.15
47330;BME280;33060;50.178;7.570;2023-02-28T12:30:03;97974.31;;;3.39;45.28
47330;BME280;33060;50.178;7.570;2023-02-28T12:32:34;97966.78;;;3.27;42.95
47330;BME280;33060;50.178;7.570;2023-02-28T12:38:08;97993.84;;;3.55;43.07
47330;BME280;33060;50.178;7.570;2023-02-28T12:43:10;97984.75;;;3.05;44.26
47330;BME280;33060;50.178;7.570;2023-02-28T12:46:00;97987.38;;;2.68;44.09
47330;BME280;33060;50.178;7.570;2023-02-28T12:48:33;97985.75;;;2.25;44.40
47330;BME280;33060;50.178;7.570;2023-02-28T12:51:06;97976.09;;;2.30;44.38
47330;BME280;33060;50.178;7.570;2023-02-28T12:53:44;97979.19;;;2.47;44.59
47330;BME280;33060;50.178;7.570;2023-02-28T12:56:23;97974.59;;;2.93;43.87
47330;BME280;33060;50.178;7.570;2023-02-28T12:59:01;97968.03;;;3.12;43.65
47330;BME280;33060;50.178;7.570;2023-02-28T13:09:34;97979.56;;;2.68;43.87
47330;BME280;33060;50.178;7.570;2023-02-28T13:12:00;97968.00;;;2.79;45.50
47330;BME280;33060;50.178;7.570;2023-02-28T13:14:36;97976.16;;;3.00;44.93
47330;BME280;33060;50.178;7.570;2023-02-28T13:19:42;97978.59;;;3.07;44.83
47330;BME280;33060;50.178;7.570;2023-02-28T13:24:57;97980.28;;;3.08;44.70
47330;BME280;33060;50.178;7.570;2023-02-28T13:27:36;97974.38;;;3.02;45.20
47330;BME280;33060;50.178;7.570;2023-02-28T13:33:31;97963.13;;;3.34;45.39
47330;BME280;33060;50.178;7.570;2023-02-28T13:38:43;97969.81;;;3.44;45.25
47330;BME280;33060;50.178;7.570;2023-02-28T13:46:29;97969.09;;;3.05;44.85
47330;BME280;33060;50.178;7.570;2023-02-28T13:49:20;97958.16;;;2.91;44.80
47330;BME280;33060;50.178;7.570;2023-02-28T13:52:21;97958.91;;;3.28;45.43
47330;BME280;33060;50.178;7.570;2023-02-28T14:05:45;97954.09;;;3.15;44.55
47330;BME280;33060;50.178;7.570;2023-02-28T14:08:19;97947.16;;;3.14;44.94
47330;BME280;33060;50.178;7.570;2023-02-28T14:10:49;97953.13;;;3.17;44.57
47330;BME280;33060;50.178;7.570;2023-02-28T14:16:06;97966.72;;;2.96;45.07
47330;BME280;33060;50.178;7.570;2023-02-28T14:18:35;97953.41;;;3.06;44.63
47330;BME280;33060;50.178;7.570;2023-02-28T14:24:00;97954.31;;;3.05;44.45
47330;BME280;33060;50.178;7.570;2023-02-28T14:32:19;97948.63;;;2.90;45.54
47330;BME280;33060;50.178;7.570;2023-02-28T14:34:53;97952.06;;;2.92;45.31
47330;BME280;33060;50.178;7.570;2023-02-28T14:37:41;97940.72;;;2.93;45.12
47330;BME280;33060;50.178;7.570;2023-02-28T14:40:21;97941.16;;;3.10;46.00
47330;BME280;33060;50.178;7.570;2023-02-28T14:42:59;97928.91;;;3.14;45.77
47330;BME280;33060;50.178;7.570;2023-02-28T14:45:29;97927.94;;;3.18;46.32
47330;BME280;33060;50.178;7.570;2023-02-28T14:47:57;97933.38;;;3.08;45.50
47330;BME280;33060;50.178;7.570;2023-02-28T14:50:33;97941.25;;;3.07;46.12
47330;BME280;33060;50.178;7.570;2023-02-28T14:53:01;97940.59;;;2.99;45.71
47330;BME280;33060;50.178;7.570;2023-02-28T14:55:34;97930.44;;;2.88;45.88
47330;BME280;33060;50.178;7.570;2023-02-28T14:58:04;97926.09;;;2.89;46.13
47330;BME280;33060;50.178;7.570;2023-02-28T15:00:35;97932.16;;;2.89;45.76
47330;BME280;33060;50.178;7.570;2023-02-28T15:03:36;97930.69;;;2.77;46.37
47330;BME280;33060;50.178;7.570;2023-02-28T15:06:16;97943.63;;;2.82;46.67
47330;BME280;33060;50.178;7.570;2023-02-28T15:08:44;97938.50;;;2.79;46.90
47330;BME280;33060;50.178;7.570;2023-02-28T15:11:16;97942.19;;;2.70;46.93
47330;BME280;33060;50.178;7.570;2023-02-28T15:13:51;97937.50;;;2.83;46.83
47330;BME280;33060;50.178;7.570;2023-02-28T15:16:21;97940.88;;;2.87;47.29
47330;BME280;33060;50.178;7.570;2023-02-28T15:21:25;97934.19;;;2.76;47.14
47330;BME280;33060;50.178;7.570;2023-02-28T15:24:08;97943.03;;;2.69;47.06
47330;BME280;33060;50.178;7.570;2023-02-28T15:26:40;97938.91;;;2.62;47.83
47330;BME280;33060;50.178;7.570;2023-02-28T15:29:13;97945.03;;;2.60;47.59
47330;BME280;33060;50.178;7.570;2023-02-28T15:31:48;97941.38;;;2.67;47.95
47330;BME280;33060;50.178;7.570;2023-02-28T15:34:35;97943.41;;;2.55;47.56
47330;BME280;33060;50.178;7.570;2023-02-28T15:39:54;97944.22;;;2.58;47.71
47330;BME280;33060;50.178;7.570;2023-02-28T15:42:23;97942.53;;;2.55;48.28